Bookmark and Share
Track history (hours):
 

Aigle Des Mers

Last reported at 2014-Apr-17 22:09 UTC. Time now 2014-Apr-19 14:34 UTC.
Position N 47°57' W 004°38'.

Length 16 m.

Type: Fishing. MMSI: 227318010.

NotesDate/timePositionNaut miles runAvg speedWind from/ knotsBaromVisibWave heightAir tempDewpointWater temp
2014-Apr-17 22:09N 47°57' W 004°38'5 8.8
2014-Apr-17 21:33N 48°00' W 004°44'10 9.7
2014-Apr-17 20:34N 48°10' W 004°48'4 3.8
2014-Apr-17 19:33N 48°14' W 004°48'1 0.7
2014-Apr-17 18:34N 48°13' W 004°48'17 0.8
2014-Apr-16 22:33N 47°57' W 004°39'8 7.7
2014-Apr-16 21:33N 48°03' W 004°46'10 9.6
2014-Apr-16 20:33N 48°13' W 004°47'1 1.3
2014-Apr-16 19:33N 48°14' W 004°47'12 6.1
2014-Apr-16 17:33N 48°02' W 004°46'7 7.0
2014-Apr-16 16:33N 47°57' W 004°39'3 0.2
2014-Apr-15 23:33N 47°56' W 004°34'7 7.4
2014-Apr-15 22:33N 47°59' W 004°44'5 2.5
2014-Apr-15 20:33N 47°58' W 004°37'6 6.2
2014-Apr-15 19:33N 47°56' W 004°28'3 0.1
2014-Apr-14 21:33N 47°58' W 004°32'2 2.3
2014-Apr-14 20:34N 47°57' W 004°29'  
2014-Apr-10 11:33N 47°44' W 003°58'3 1.3
2014-Apr-10 09:33N 47°45' W 004°02'  

Dump ship's entire track history

sailing weather and tide predictions

Aigle Des Mers — FO4883 — position and weather